Ashern, Canada
Current Conditions -  °F | °C
As of 9:02 AM on Friday 28 Nov 2014 (Local Time) from CYDN Reporting Station
Light Snow Light Snow  
Wind Chill: -10°   Ceiling: 3100
Heat Index:   Visibility: 3mi
Dew Point:   Wind: 10mph
Humidity: 85%   Direction: 50°NE
Pressure: 30.02"   Gusts: NA
Location:  51.18°N, 98.33°W
Report Text: CYDN 281502Z AUTO 05009KT 3SM -SN OVC031 M15/M17 A3002 RMK SLP194
Loading
Personal Weather Stations






























Interactive Weather Map New forecast layout! Learn more

10-Day Weather Forecast

Advertisements
Track Severe Weather on mobile